Home PIREPS Pireps

Flight SLR3120

  • Submitted By: Carl Hermans
  • Departure Airport: Tarbes-Lourdes-Pyrenees (LFBT)
  • Arrival Airport: Bruxelles National (EBBR)
  • Aircraft: B737-800 (OO-SLR)
  • Flight Time: 01.27
  • Date Submitted: 24/06/2015
  • Status: Accepted
Flight Details
Gross Revenue:
(128 load / € 0.00 per unit
€ 0.00
Fuel Cost:
(3989 fuel used @ 5.1 / unit)
€ 20,343.90

Additional Log Information:

View Log

Aircraft Used in flight is iFly 737-800 (Wide screen)
18:48 Recovered from Stall
18:48 Recovered from Overspeed
18:48 You Landed @ 28 Knots and with -350 Vertical Speed
Arrival Weather
EBBR 241620Z 24008KT 200V320 CAVOK 21/08 Q1022 NOSIGrn
18:49 Landing Gear Up @ 172 Knots and 1370 Feet
18:51 Above FL100 you need to switch of the landing lights
19:54 Above FL100 you need to switch of the landing lights
20:05 Landing Gear Down @ 161 Knots and 3940 Feet
20:14 Brakes are On
20:16 Brussels Bel-Track1.0.0.9

Route Map

Corporate About Us Our Team Vacancies Information Fleet Route Network Rules and Regulations Operations Flight Schedules Event Center Tours Partners IVAO Vatsim Acars dev FSCB

fb Users Online Belgium Roger Wijns, United Kingdom David Chenery,
2 Pilot(s) and 163 Guest(s) Online
CMS by phpVMS - Design by Crazycreatives.com - Copyright © 2018 - Brussels Airlines Virtual